Lawrenceville, Arkansas
Current Conditions -  °F | °C
As of 3:35 PM on Friday 19 Dec 2014 (Local Time) from KSGT Reporting Station
Overcast Overcast  
Wind Chill: 37°   Ceiling: 8000
Heat Index: 43°   Visibility: NA
Dew Point: 36°   Wind: 9mph
Humidity: 76%   Direction: 40°NE
Pressure: 30.21"   Gusts: NA
Location:  34.5919°N, 91.1409°W
Report Text: KSGT 192135Z 04008KT FEW050 OVC080 06/02 A3021 RMK AO1
Loading
Personal Weather Stations






























Interactive Weather Map New forecast layout! Learn more

10-Day Weather Forecast

Advertisements
Track Severe Weather on mobile